Time;durP1;ratioP1;P1;durP2;ratioP2;P2;SDS_P1;SDS_P2;PMS_P1;PMS_P2;Temp;Humidity;BMP_temperature;BMP_pressure;BME280_temperature;BME280_humidity;BME280_pressure;Samples;Min_cycle;Max_cycle;Signal;HPM_P1;HPM_P2
2021/09/01 00:00:39;;;;;;;7.88;4.10;;;26.30;45.40;;;;;;5065176;28;20031;-46
2021/09/01 00:03:04;;;;;;;5.20;3.65;;;26.20;45.40;;;;;;5054762;28;20029;-53
2021/09/01 00:05:30;;;;;;;6.72;3.70;;;26.20;45.40;;;;;;5072102;28;20099;-47
2021/09/01 00:07:56;;;;;;;7.20;4.22;;;26.20;45.50;;;;;;5053491;28;20166;-45
2021/09/01 00:10:21;;;;;;;6.63;3.95;;;26.20;45.40;;;;;;5067897;28;20025;-47
2021/09/01 00:12:47;;;;;;;5.10;3.30;;;26.30;45.50;;;;;;5052804;28;20032;-45
2021/09/01 00:15:13;;;;;;;5.88;3.58;;;26.20;45.40;;;;;;5053597;28;20465;-47
2021/09/01 00:17:39;;;;;;;7.40;3.88;;;26.20;45.40;;;;;;5052850;28;20052;-48
2021/09/01 00:20:07;;;;;;;5.32;4.20;;;26.20;45.30;;;;;;5056197;28;20029;-50
2021/09/01 00:22:34;;;;;;;6.97;4.07;;;26.20;45.40;;;;;;5033677;28;20501;-46
2021/09/01 00:25:00;;;;;;;6.18;4.25;;;26.20;45.30;;;;;;5052887;28;20037;-44
2021/09/01 00:27:26;;;;;;;5.40;4.10;;;26.20;45.30;;;;;;5062416;28;20209;-53
2021/09/01 00:29:51;;;;;;;6.60;3.80;;;26.20;45.20;;;;;;5033681;28;20459;-47
2021/09/01 00:32:17;;;;;;;5.40;4.10;;;26.20;45.20;;;;;;5063848;28;20024;-44
2021/09/01 00:34:43;;;;;;;5.50;3.88;;;26.20;45.20;;;;;;5070633;28;20056;-44
2021/09/01 00:37:08;;;;;;;5.43;4.13;;;26.20;45.10;;;;;;5071849;28;20028;-45
2021/09/01 00:39:53;;;;;;;5.38;4.10;;;26.20;45.10;;;;;;5050729;28;20108;-46
2021/09/01 00:42:19;;;;;;;6.85;4.10;;;26.20;45.10;;;;;;5038332;28;20032;-45
2021/09/01 00:44:46;;;;;;;5.38;4.00;;;26.30;45.10;;;;;;5068679;28;20033;-44
2021/09/01 00:47:18;;;;;;;6.10;3.70;;;26.20;45.10;;;;;;5061100;28;20462;-46
2021/09/01 00:49:44;;;;;;;6.82;4.03;;;26.20;45.10;;;;;;5033228;28;20025;-47
2021/09/01 00:52:12;;;;;;;6.10;4.10;;;26.20;45.00;;;;;;5039593;28;20032;-48
2021/09/01 00:54:38;;;;;;;7.68;4.55;;;26.20;45.00;;;;;;5058493;28;20089;-44
2021/09/01 00:57:06;;;;;;;6.70;4.22;;;26.20;44.90;;;;;;5070848;28;20020;-48
2021/09/01 00:59:34;;;;;;;5.10;4.00;;;26.20;44.90;;;;;;5070764;28;20167;-50
2021/09/01 01:02:02;;;;;;;5.05;3.55;;;26.20;44.90;;;;;;5041129;28;20147;-47
2021/09/01 01:04:29;;;;;;;4.97;4.03;;;26.20;44.90;;;;;;5052683;28;20032;-47
2021/09/01 01:07:05;;;;;;;5.47;3.78;;;26.20;44.80;;;;;;5055082;28;20036;-46
2021/09/01 01:09:33;;;;;;;5.18;3.70;;;26.10;44.70;;;;;;5073282;28;20028;-46
2021/09/01 01:12:15;;;;;;;5.47;4.18;;;26.20;44.70;;;;;;5045030;28;20025;-47
2021/09/01 01:14:44;;;;;;;4.85;4.10;;;26.20;44.60;;;;;;5054777;28;20028;-48
2021/09/01 01:17:11;;;;;;;5.35;4.18;;;26.20;44.60;;;;;;5052076;28;20050;-46
2021/09/01 01:19:42;;;;;;;4.38;3.80;;;26.20;44.50;;;;;;5073372;28;20032;-45
2021/09/01 01:22:13;;;;;;;6.10;4.30;;;26.10;44.50;;;;;;5057009;28;20043;-46
2021/09/01 01:24:59;;;;;;;5.82;4.40;;;26.20;44.60;;;;;;5074955;28;20127;-42
2021/09/01 01:27:39;;;;;;;6.13;4.18;;;26.10;44.60;;;;;;5057570;28;20028;-42
2021/09/01 01:30:11;;;;;;;8.38;3.92;;;26.10;44.50;;;;;;5074773;28;20108;-49
2021/09/01 01:32:38;;;;;;;5.55;4.00;;;26.10;44.50;;;;;;5074617;28;20408;-47
2021/09/01 01:35:04;;;;;;;6.15;4.00;;;26.10;44.60;;;;;;5073846;28;20024;-51
2021/09/01 01:37:30;;;;;;;5.22;3.88;;;26.10;44.50;;;;;;5056892;28;20450;-43
2021/09/01 01:39:56;;;;;;;5.70;4.03;;;26.10;44.40;;;;;;5074135;28;20024;-45
2021/09/01 01:42:22;;;;;;;5.35;4.47;;;26.10;44.40;;;;;;5074520;28;20035;-46
2021/09/01 01:44:48;;;;;;;5.13;4.47;;;26.10;44.30;;;;;;5073660;28;20411;-45
2021/09/01 01:47:14;;;;;;;5.03;3.90;;;26.10;44.30;;;;;;5074299;28;20020;-47
2021/09/01 01:49:39;;;;;;;5.68;4.32;;;26.10;44.30;;;;;;5056387;28;20337;-43
2021/09/01 01:52:05;;;;;;;6.40;4.03;;;26.10;44.30;;;;;;5073654;28;20028;-43
2021/09/01 01:54:31;;;;;;;5.18;3.80;;;26.10;44.30;;;;;;5056146;28;20037;-50
2021/09/01 01:56:57;;;;;;;5.13;4.03;;;26.10;44.30;;;;;;5073638;28;20024;-48
2021/09/01 01:59:23;;;;;;;5.45;4.03;;;26.10;44.20;;;;;;5074003;28;20108;-46
2021/09/01 02:01:48;;;;;;;5.63;4.07;;;26.10;44.10;;;;;;5073148;28;20484;-44
2021/09/01 02:04:14;;;;;;;4.32;3.92;;;26.10;44.10;;;;;;5055659;28;20036;-44
2021/09/01 02:06:41;;;;;;;4.38;3.58;;;26.10;44.10;;;;;;5073929;28;20035;-49
2021/09/01 02:09:07;;;;;;;5.75;4.47;;;26.10;44.10;;;;;;5073373;28;20480;-43
2021/09/01 02:11:33;;;;;;;5.00;3.97;;;26.00;44.00;;;;;;5073699;28;20020;-49
2021/09/01 02:13:59;;;;;;;5.90;4.22;;;26.10;44.10;;;;;;5054997;28;20532;-49
2021/09/01 02:16:25;;;;;;;4.53;3.92;;;26.00;44.00;;;;;;5055461;28;20031;-47
2021/09/01 02:18:51;;;;;;;5.95;4.00;;;26.00;44.00;;;;;;5055215;28;20462;-44
2021/09/01 02:21:16;;;;;;;6.90;4.10;;;26.00;44.00;;;;;;5073203;28;20021;-45
2021/09/01 02:23:42;;;;;;;4.43;3.83;;;26.10;44.10;;;;;;5055101;28;20398;-50
2021/09/01 02:26:08;;;;;;;5.80;3.97;;;26.10;44.00;;;;;;5054883;28;20028;-48
2021/09/01 02:28:33;;;;;;;4.75;3.80;;;26.00;43.90;;;;;;5073453;28;20386;-48
2021/09/01 02:30:59;;;;;;;4.50;3.72;;;26.00;43.80;;;;;;5054929;28;20066;-46
2021/09/01 02:33:24;;;;;;;6.97;3.90;;;26.10;43.90;;;;;;5073173;28;20024;-44
2021/09/01 02:35:50;;;;;;;6.20;3.97;;;26.00;43.80;;;;;;5072624;28;20027;-44
2021/09/01 02:38:16;;;;;;;7.13;4.30;;;26.00;43.80;;;;;;5073153;28;20055;-48
2021/09/01 02:40:41;;;;;;;5.68;4.10;;;26.00;43.80;;;;;;5073402;28;20032;-46
2021/09/01 02:43:07;;;;;;;5.35;4.10;;;26.00;43.90;;;;;;5072646;28;20029;-47
2021/09/01 02:45:33;;;;;;;5.95;4.43;;;26.00;43.80;;;;;;5073266;28;20029;-47
2021/09/01 02:47:58;;;;;;;5.55;3.92;;;26.00;43.80;;;;;;5072614;28;20021;-47
2021/09/01 02:50:24;;;;;;;7.05;4.03;;;26.00;43.80;;;;;;5072944;28;20466;-48
2021/09/01 02:52:50;;;;;;;4.28;3.67;;;26.00;43.80;;;;;;5072137;28;20032;-45
2021/09/01 02:55:16;;;;;;;5.97;4.13;;;26.00;43.80;;;;;;5038352;28;20040;-46
2021/09/01 02:57:41;;;;;;;5.40;4.10;;;26.00;43.70;;;;;;5073029;28;20024;-44
2021/09/01 03:00:08;;;;;;;6.03;3.85;;;26.00;43.70;;;;;;5071689;28;20063;-48
2021/09/01 03:02:34;;;;;;;5.85;3.83;;;26.00;43.70;;;;;;5053415;28;20040;-47
2021/09/01 03:05:00;;;;;;;5.30;4.15;;;26.00;43.60;;;;;;5053514;28;20044;-46
2021/09/01 03:07:26;;;;;;;5.90;4.50;;;26.00;43.60;;;;;;5072613;28;20112;-48
2021/09/01 03:09:51;;;;;;;5.80;3.92;;;26.00;43.50;;;;;;5071572;28;20366;-46
2021/09/01 03:12:17;;;;;;;7.18;4.25;;;26.00;43.50;;;;;;5071993;28;20446;-48
2021/09/01 03:15:01;;;;;;;5.00;4.00;;;26.00;43.50;;;;;;5054072;28;20363;-49
2021/09/01 03:17:26;;;;;;;;;;;26.00;43.50;;;;;;5072822;28;20052;-44
2021/09/01 03:19:52;;;;;;;6.65;3.92;;;26.00;43.50;;;;;;5071660;28;19905;-48
2021/09/01 03:22:18;;;;;;;5.05;3.80;;;26.00;43.50;;;;;;5072684;28;20029;-49
2021/09/01 03:24:43;;;;;;;5.85;4.03;;;26.00;43.50;;;;;;5072217;28;20044;-49
2021/09/01 03:27:09;;;;;;;5.07;4.15;;;26.00;43.60;;;;;;5071602;28;20522;-47
2021/09/01 03:29:35;;;;;;;5.75;4.22;;;26.00;43.60;;;;;;5071566;28;20024;-46
2021/09/01 03:32:00;;;;;;;5.70;4.63;;;26.00;43.60;;;;;;5053633;28;20020;-47
2021/09/01 03:34:26;;;;;;;5.38;4.22;;;25.90;43.60;;;;;;5054181;28;20115;-48
2021/09/01 03:36:52;;;;;;;4.68;3.88;;;26.00;43.70;;;;;;5071076;28;20362;-46
2021/09/01 03:39:17;;;;;;;5.70;4.20;;;25.90;43.50;;;;;;5071888;28;20357;-47
2021/09/01 03:41:43;;;;;;;5.20;4.20;;;26.00;43.60;;;;;;5071701;28;20025;-46
2021/09/01 03:44:09;;;;;;;8.60;6.22;;;26.00;43.60;;;;;;5070811;28;20025;-47
2021/09/01 03:46:35;;;;;;;14.18;11.80;;;26.00;43.60;;;;;;5053412;28;20028;-45
2021/09/01 03:49:02;;;;;;;10.10;7.82;;;25.90;43.40;;;;;;5053095;28;20025;-44
2021/09/01 03:51:29;;;;;;;7.57;5.93;;;25.90;43.40;;;;;;5053961;28;20536;-45
2021/09/01 03:53:57;;;;;;;5.90;4.60;;;25.90;43.40;;;;;;5052041;28;20534;-45
2021/09/01 03:56:23;;;;;;;6.55;4.68;;;25.90;43.40;;;;;;5053552;28;20020;-46
2021/09/01 03:58:53;;;;;;;7.10;4.45;;;25.90;43.40;;;;;;5071065;28;20031;-44
2021/09/01 04:01:38;;;;;;;6.68;4.57;;;25.90;43.40;;;;;;5053352;28;20024;-45
2021/09/01 04:04:05;;;;;;;6.35;4.80;;;25.90;43.30;;;;;;5070399;28;20028;-44
2021/09/01 04:06:32;;;;;;;7.15;4.93;;;25.90;43.20;;;;;;5070807;28;20024;-44
2021/09/01 04:08:59;;;;;;;5.65;4.35;;;25.90;43.20;;;;;;5070366;28;20024;-48
2021/09/01 04:11:25;;;;;;;6.43;5.25;;;25.90;43.20;;;;;;5071126;28;20036;-45
2021/09/01 04:13:50;;;;;;;7.93;5.30;;;25.90;43.10;;;;;;5052604;28;20078;-47
2021/09/01 04:16:17;;;;;;;5.03;4.20;;;25.90;43.20;;;;;;5071005;28;20462;-46
2021/09/01 04:18:42;;;;;;;5.63;4.57;;;25.90;43.10;;;;;;5052564;28;20121;-51
2021/09/01 04:21:08;;;;;;;6.57;4.85;;;25.90;43.10;;;;;;5070244;28;20421;-45
2021/09/01 04:23:34;;;;;;;4.97;3.80;;;25.90;43.20;;;;;;5070499;28;20061;-47
2021/09/01 04:26:00;;;;;;;5.65;4.72;;;25.90;43.20;;;;;;5051832;28;20031;-47
2021/09/01 04:28:26;;;;;;;7.88;5.22;;;25.90;43.30;;;;;;5070911;28;20029;-47
2021/09/01 04:30:52;;;;;;;8.45;5.22;;;25.90;43.10;;;;;;5069510;28;20021;-44
2021/09/01 04:33:17;;;;;;;6.22;4.55;;;25.90;43.00;;;;;;5052770;28;20033;-45
2021/09/01 04:35:43;;;;;;;8.35;4.57;;;25.90;43.10;;;;;;5070833;28;20039;-46
2021/09/01 04:38:09;;;;;;;6.10;4.18;;;25.90;43.10;;;;;;5070190;28;20025;-44
2021/09/01 04:40:36;;;;;;;5.75;4.32;;;25.90;43.00;;;;;;5072689;28;20418;-48
2021/09/01 04:43:02;;;;;;;7.60;4.82;;;25.90;43.00;;;;;;5056190;28;20112;-45
2021/09/01 04:45:28;;;;;;;6.75;4.40;;;25.90;43.10;;;;;;5074318;28;20119;-45
2021/09/01 04:47:54;;;;;;;7.80;4.78;;;25.90;43.00;;;;;;5074268;28;20107;-46
2021/09/01 04:50:19;;;;;;;5.82;4.30;;;25.90;43.00;;;;;;5074968;28;20028;-45
2021/09/01 04:52:45;;;;;;;7.10;4.32;;;25.90;43.10;;;;;;5075609;28;20358;-44
2021/09/01 04:55:11;;;;;;;6.50;4.82;;;25.90;43.20;;;;;;5074061;28;20569;-47
2021/09/01 04:57:37;;;;;;;7.25;4.88;;;25.90;43.10;;;;;;5074850;28;20081;-43
2021/09/01 05:00:05;;;;;;;6.88;4.97;;;25.90;43.10;;;;;;5074905;28;20028;-43
2021/09/01 05:02:30;;;;;;;5.95;4.20;;;25.90;43.00;;;;;;5056696;28;20063;-44
2021/09/01 05:04:56;;;;;;;5.72;4.32;;;25.90;42.90;;;;;;5074262;28;20060;-48
2021/09/01 05:07:22;;;;;;;5.90;4.80;;;25.90;43.00;;;;;;5056874;28;20029;-46
2021/09/01 05:09:47;;;;;;;7.63;4.95;;;25.90;43.00;;;;;;5074832;28;20032;-45
2021/09/01 05:12:13;;;;;;;6.63;4.60;;;25.90;43.00;;;;;;5074244;28;20426;-45
2021/09/01 05:14:39;;;;;;;6.13;4.55;;;25.90;42.90;;;;;;5074665;28;20381;-45
2021/09/01 05:17:04;;;;;;;8.50;4.70;;;25.90;42.80;;;;;;5073484;28;20025;-47
2021/09/01 05:19:30;;;;;;;6.65;4.82;;;25.90;42.80;;;;;;5073816;28;20089;-48
2021/09/01 05:22:04;;;;;;;6.10;4.72;;;25.90;42.80;;;;;;5073494;28;20481;-43
2021/09/01 05:24:45;;;;;;;6.18;4.55;;;25.80;42.70;;;;;;5038546;28;20056;-46
2021/09/01 05:27:21;;;;;;;8.52;5.05;;;25.80;42.80;;;;;;5053808;28;20028;-43
2021/09/01 05:29:48;;;;;;;5.47;4.57;;;25.80;42.80;;;;;;5054568;28;20013;-47
2021/09/01 05:32:23;;;;;;;7.07;4.55;;;25.90;42.90;;;;;;5053540;28;20017;-44
2021/09/01 05:34:50;;;;;;;9.82;5.25;;;25.80;42.90;;;;;;5036493;28;20186;-44
2021/09/01 05:37:16;;;;;;;16.10;6.30;;;25.90;42.90;;;;;;5053336;28;20211;-48
2021/09/01 05:39:45;;;;;;;20.08;6.55;;;25.80;42.80;;;;;;5036075;28;20482;-43
2021/09/01 05:42:13;;;;;;;15.52;6.10;;;25.80;42.80;;;;;;5052655;28;20052;-48
2021/09/01 05:44:58;;;;;;;16.50;5.53;;;25.80;42.80;;;;;;5035221;28;20029;-42
2021/09/01 05:47:25;;;;;;;22.10;6.55;;;25.80;42.90;;;;;;5053304;28;20029;-48
2021/09/01 05:49:52;;;;;;;15.10;6.10;;;25.80;42.90;;;;;;5035700;28;20059;-43
2021/09/01 05:52:19;;;;;;;15.65;6.25;;;25.80;42.90;;;;;;5052321;28;20060;-44
2021/09/01 05:54:47;;;;;;;18.00;6.32;;;25.80;43.50;;;;;;5035765;28;20127;-44
2021/09/01 05:57:28;;;;;;;15.80;6.15;;;25.80;42.80;;;;;;5035202;28;20029;-45
2021/09/01 05:59:55;;;;;;;20.02;5.63;;;25.80;43.10;;;;;;5053674;28;20025;-42
2021/09/01 06:02:30;;;;;;;28.48;6.68;;;25.80;43.20;;;;;;5053545;28;20052;-45
2021/09/01 06:05:02;;;;;;;18.50;7.10;;;25.80;43.00;;;;;;5052911;28;20048;-42
2021/09/01 06:07:29;;;;;;;18.52;6.68;;;25.80;42.90;;;;;;5035986;28;20025;-48
2021/09/01 06:09:58;;;;;;;23.25;7.00;;;25.90;42.90;;;;;;5053499;28;20060;-42
2021/09/01 06:12:26;;;;;;;27.33;7.25;;;25.80;42.80;;;;;;5053537;28;20108;-45
2021/09/01 06:14:52;;;;;;;24.35;7.22;;;25.80;42.80;;;;;;5053533;28;20053;-43
2021/09/01 06:17:18;;;;;;;21.77;7.50;;;25.90;42.80;;;;;;5052738;28;20059;-45
2021/09/01 06:19:43;;;;;;;21.65;7.38;;;25.80;42.80;;;;;;5035520;28;20021;-49
2021/09/01 06:22:09;;;;;;;25.58;7.35;;;25.80;42.80;;;;;;5034884;28;20021;-44
2021/09/01 06:24:36;;;;;;;33.13;7.45;;;25.80;42.80;;;;;;5054023;28;20151;-43
2021/09/01 06:27:03;;;;;;;24.38;7.85;;;25.80;42.80;;;;;;5072975;28;20052;-47
2021/09/01 06:29:29;;;;;;;19.30;7.13;;;25.80;42.80;;;;;;5073314;28;20423;-44
2021/09/01 06:31:55;;;;;;;28.08;7.25;;;25.80;42.80;;;;;;5073102;28;20103;-42
2021/09/01 06:34:21;;;;;;;26.75;7.53;;;25.80;42.80;;;;;;5072506;28;20098;-43
2021/09/01 06:36:46;;;;;;;27.40;8.55;;;25.80;42.90;;;;;;5055426;28;20028;-45
2021/09/01 06:39:12;;;;;;;27.73;7.22;;;25.80;42.80;;;;;;5054813;28;20031;-44
2021/09/01 06:41:39;;;;;;;25.40;8.27;;;25.80;42.90;;;;;;5055287;28;20040;-49
2021/09/01 06:44:05;;;;;;;27.63;8.32;;;25.80;42.90;;;;;;5072408;28;20036;-43
2021/09/01 06:46:31;;;;;;;23.85;7.93;;;25.80;42.90;;;;;;5073073;28;20457;-45
2021/09/01 06:48:57;;;;;;;23.20;7.75;;;25.80;42.90;;;;;;5055065;28;20481;-48
2021/09/01 06:51:23;;;;;;;30.77;8.27;;;25.80;42.90;;;;;;5054934;28;20028;-45
2021/09/01 06:53:49;;;;;;;30.08;7.50;;;25.80;43.00;;;;;;5072520;28;20146;-45
2021/09/01 06:56:14;;;;;;;29.20;8.55;;;25.80;42.90;;;;;;5072120;28;20058;-49
2021/09/01 06:58:40;;;;;;;29.58;8.20;;;25.80;42.90;;;;;;5072403;28;20048;-46
2021/09/01 07:01:06;;;;;;;31.40;7.38;;;25.80;42.90;;;;;;5053957;28;20036;-44
2021/09/01 07:03:31;;;;;;;29.23;8.20;;;25.90;43.00;;;;;;5071555;28;20059;-45
2021/09/01 07:05:57;;;;;;;30.17;8.88;;;25.80;42.90;;;;;;5072493;28;20055;-42
2021/09/01 07:08:23;;;;;;;30.17;8.18;;;25.90;42.80;;;;;;5071578;28;20020;-44
2021/09/01 07:10:51;;;;;;;37.97;8.75;;;25.90;42.70;;;;;;5054556;28;20055;-46
2021/09/01 07:13:18;;;;;;;32.55;8.95;;;25.90;42.60;;;;;;5071893;28;20024;-42
2021/09/01 07:15:44;;;;;;;33.10;9.77;;;25.80;42.60;;;;;;5054311;28;20029;-41
2021/09/01 07:18:10;;;;;;;31.23;8.68;;;25.90;42.60;;;;;;5071862;28;20024;-48
2021/09/01 07:20:38;;;;;;;34.70;8.98;;;25.90;43.20;;;;;;5072390;28;20123;-43
2021/09/01 07:23:04;;;;;;;28.73;8.55;;;25.90;42.60;;;;;;5071409;28;20315;-42
2021/09/01 07:25:32;;;;;;;33.53;8.88;;;25.90;42.70;;;;;;5054017;28;20039;-43
2021/09/01 07:27:59;;;;;;;30.90;8.20;;;25.90;43.00;;;;;;5054262;28;20371;-42
2021/09/01 07:30:25;;;;;;;37.83;8.68;;;25.90;43.00;;;;;;5071338;28;20020;-47
2021/09/01 07:32:50;;;;;;;42.53;8.52;;;25.90;42.90;;;;;;5072102;28;20066;-42
2021/09/01 07:35:16;;;;;;;29.90;8.57;;;25.90;42.90;;;;;;5071369;28;20028;-44
2021/09/01 07:37:49;;;;;;;40.80;9.70;;;25.90;42.90;;;;;;5072167;28;20036;-43
2021/09/01 07:40:17;;;;;;;29.35;9.65;;;25.90;43.00;;;;;;5071331;28;20020;-43
2021/09/01 07:42:43;;;;;;;38.42;8.57;;;25.90;43.00;;;;;;5071860;28;20513;-43
2021/09/01 07:45:11;;;;;;;35.92;8.88;;;25.90;43.00;;;;;;5053195;28;20354;-43
2021/09/01 07:47:37;;;;;;;36.08;9.15;;;25.90;43.00;;;;;;5072062;28;20039;-45
2021/09/01 07:50:04;;;;;;;30.15;8.85;;;25.90;43.00;;;;;;5071740;28;20028;-44
2021/09/01 07:52:30;;;;;;;41.53;9.07;;;25.90;43.00;;;;;;5053550;28;20101;-43
2021/09/01 07:54:56;;;;;;;35.75;8.88;;;25.90;43.00;;;;;;5053515;28;20035;-45
2021/09/01 07:57:22;;;;;;;30.33;7.72;;;26.00;43.20;;;;;;5071473;28;20029;-45
2021/09/01 07:59:48;;;;;;;33.05;9.20;;;26.00;43.30;;;;;;5071457;28;20481;-43
2021/09/01 08:02:13;;;;;;;32.00;8.43;;;26.00;43.30;;;;;;5052831;28;20032;-43
2021/09/01 08:04:39;;;;;;;40.88;9.27;;;26.00;43.30;;;;;;5071426;28;20033;-47
2021/09/01 08:07:05;;;;;;;29.73;8.82;;;26.10;43.50;;;;;;5070696;28;20386;-45
2021/09/01 08:09:30;;;;;;;33.35;9.50;;;26.10;43.40;;;;;;5053495;28;20458;-46
2021/09/01 08:11:56;;;;;;;35.13;9.27;;;26.10;43.40;;;;;;5053172;28;20119;-45
2021/09/01 08:14:21;;;;;;;32.17;9.02;;;26.10;43.20;;;;;;5070483;28;20029;-41
2021/09/01 08:16:47;;;;;;;32.33;9.10;;;26.10;43.20;;;;;;5071135;28;20039;-43
2021/09/01 08:19:13;;;;;;;35.88;9.57;;;26.10;43.20;;;;;;5052692;28;20456;-44
2021/09/01 08:21:39;;;;;;;30.58;9.00;;;26.10;43.20;;;;;;5071226;28;20029;-41
2021/09/01 08:24:05;;;;;;;24.10;7.30;;;26.10;43.20;;;;;;5070835;28;20477;-43
2021/09/01 08:26:32;;;;;;;23.98;7.00;;;26.10;43.30;;;;;;5071651;28;20055;-42
2021/09/01 08:28:57;;;;;;;30.58;8.48;;;26.10;43.30;;;;;;5071615;28;20024;-42
2021/09/01 08:31:23;;;;;;;22.50;7.43;;;26.10;43.40;;;;;;5070498;28;20543;-42
2021/09/01 08:33:49;;;;;;;22.35;7.20;;;26.20;43.30;;;;;;5053163;28;20381;-41
2021/09/01 08:36:14;;;;;;;25.50;7.97;;;26.10;43.30;;;;;;5070614;28;20473;-41
2021/09/01 08:38:40;;;;;;;24.88;8.35;;;26.20;43.40;;;;;;5070956;28;20104;-45
2021/09/01 08:41:06;;;;;;;24.70;8.18;;;26.10;43.30;;;;;;5053375;28;20055;-44
2021/09/01 08:43:33;;;;;;;22.65;8.15;;;26.20;43.40;;;;;;5071372;28;20082;-42
2021/09/01 08:46:01;;;;;;;25.20;7.90;;;26.10;43.30;;;;;;5053028;28;20119;-44
2021/09/01 08:48:27;;;;;;;17.02;7.18;;;26.10;43.40;;;;;;5070687;28;20314;-49
2021/09/01 08:50:54;;;;;;;23.88;7.68;;;26.20;43.40;;;;;;5052908;28;20474;-44
2021/09/01 08:53:20;;;;;;;20.08;8.00;;;26.10;44.00;;;;;;5070359;28;20078;-43
2021/09/01 08:55:49;;;;;;;19.30;6.63;;;26.20;43.50;;;;;;5070888;28;20025;-45
2021/09/01 08:58:23;;;;;;;18.27;6.78;;;26.20;43.40;;;;;;5069672;28;20024;-47
2021/09/01 09:00:48;;;;;;;27.40;7.72;;;26.20;43.40;;;;;;5070306;28;20115;-45
2021/09/01 09:03:14;;;;;;;22.27;7.50;;;26.20;43.40;;;;;;5070091;28;20068;-43
2021/09/01 09:05:42;;;;;;;27.55;7.18;;;26.20;43.40;;;;;;5070287;28;20125;-44
2021/09/01 09:08:11;;;;;;;17.33;7.25;;;26.20;43.40;;;;;;5069672;28;20107;-45
2021/09/01 09:10:48;;;;;;;17.90;7.40;;;26.20;43.40;;;;;;5051412;28;20033;-43
2021/09/01 09:13:24;;;;;;;19.33;6.95;;;26.20;43.30;;;;;;5069313;28;20035;-47
2021/09/01 09:16:07;;;;;;;19.70;7.55;;;26.20;43.40;;;;;;5051533;28;20020;-42
2021/09/01 09:18:33;;;;;;;25.67;7.65;;;26.20;43.40;;;;;;5050733;28;20035;-42
2021/09/01 09:21:15;;;;;;;16.83;7.20;;;26.30;43.30;;;;;;5069911;28;20025;-42
2021/09/01 09:23:43;;;;;;;20.20;8.35;;;26.20;43.30;;;;;;5069592;28;20055;-44
2021/09/01 09:26:19;;;;;;;16.00;7.20;;;26.30;43.40;;;;;;5069216;28;20040;-43
2021/09/01 09:28:45;;;;;;;21.98;7.45;;;26.20;43.40;;;;;;5055608;28;20056;-44
2021/09/01 09:31:10;;;;;;;20.75;7.50;;;26.30;43.40;;;;;;5054416;28;20437;-43
2021/09/01 09:33:40;;;;;;;19.33;6.75;;;26.30;43.40;;;;;;5073641;28;20477;-44
2021/09/01 09:36:06;;;;;;;30.33;7.32;;;26.20;43.30;;;;;;5055508;28;20024;-43
2021/09/01 09:38:37;;;;;;;23.10;7.40;;;26.30;43.40;;;;;;5072744;28;20090;-43
2021/09/01 09:41:06;;;;;;;27.65;8.65;;;26.30;43.40;;;;;;5073092;28;20032;-45
2021/09/01 09:43:33;;;;;;;22.83;7.93;;;26.30;43.40;;;;;;5054733;28;20031;-45
2021/09/01 09:46:07;;;;;;;30.02;8.95;;;26.30;43.50;;;;;;5073164;28;20027;-48
2021/09/01 09:48:34;;;;;;;22.58;9.05;;;26.30;43.40;;;;;;5073146;28;20029;-48
2021/09/01 09:51:05;;;;;;;34.42;7.95;;;26.30;43.50;;;;;;5073152;28;20031;-45
2021/09/01 09:53:36;;;;;;;28.05;9.10;;;26.30;43.50;;;;;;5054562;28;20021;-45
2021/09/01 09:56:11;;;;;;;22.67;7.90;;;26.30;43.50;;;;;;5072964;28;20525;-45
2021/09/01 09:58:49;;;;;;;24.60;7.68;;;26.30;43.50;;;;;;5054952;28;20031;-44
2021/09/01 10:01:17;;;;;;;30.20;8.07;;;26.30;43.40;;;;;;5071421;28;20028;-49
2021/09/01 10:03:44;;;;;;;23.40;7.78;;;26.30;43.50;;;;;;5071778;28;20521;-45
2021/09/01 10:06:14;;;;;;;20.60;8.30;;;26.30;43.40;;;;;;5072919;28;20063;-44
2021/09/01 10:08:40;;;;;;;19.98;6.70;;;26.30;43.40;;;;;;5072737;28;20028;-45
2021/09/01 10:11:09;;;;;;;17.58;6.88;;;26.30;43.40;;;;;;5072992;28;20120;-46
2021/09/01 10:13:37;;;;;;;19.67;7.40;;;26.30;43.40;;;;;;5072191;28;20107;-44
2021/09/01 10:16:21;;;;;;;21.92;7.60;;;26.30;43.40;;;;;;5054916;28;20080;-47
2021/09/01 10:18:58;;;;;;;21.67;7.70;;;26.30;43.50;;;;;;5072597;28;20438;-47
2021/09/01 10:21:26;;;;;;;16.50;6.60;;;26.40;43.50;;;;;;5071745;28;20168;-46
2021/09/01 10:23:51;;;;;;;21.10;7.22;;;26.40;43.50;;;;;;5072702;28;20049;-48
2021/09/01 10:26:33;;;;;;;16.83;7.22;;;26.40;43.50;;;;;;5054193;28;20032;-45
2021/09/01 10:29:02;;;;;;;23.20;6.68;;;26.30;43.40;;;;;;5072171;28;20032;-45
2021/09/01 10:31:33;;;;;;;16.55;7.13;;;26.40;43.50;;;;;;5072201;28;20048;-45
2021/09/01 10:34:20;;;;;;;18.70;6.40;;;26.30;43.40;;;;;;5072643;28;20090;-43
2021/09/01 10:36:48;;;;;;;17.35;6.70;;;26.30;43.50;;;;;;5038015;28;20021;-49
2021/09/01 10:39:15;;;;;;;15.93;6.57;;;26.40;43.40;;;;;;5072008;28;20020;-46
2021/09/01 10:41:41;;;;;;;23.13;6.32;;;26.40;43.40;;;;;;5071820;28;20381;-48
2021/09/01 10:44:13;;;;;;;14.82;6.72;;;26.40;43.40;;;;;;5054310;28;20028;-44
2021/09/01 10:46:51;;;;;;;15.85;6.07;;;26.40;43.40;;;;;;5072806;28;20107;-48
2021/09/01 10:49:21;;;;;;;17.02;7.13;;;26.30;43.40;;;;;;5053516;28;20074;-46
2021/09/01 10:51:51;;;;;;;14.50;5.97;;;26.40;43.40;;;;;;5054417;28;20029;-45
2021/09/01 10:54:28;;;;;;;14.90;6.22;;;26.40;43.40;;;;;;5053489;28;20029;-44
2021/09/01 10:56:54;;;;;;;14.65;6.30;;;26.40;43.50;;;;;;5071911;28;20111;-44
2021/09/01 10:59:28;;;;;;;21.35;6.53;;;26.40;43.40;;;;;;5071352;28;20104;-44
2021/09/01 11:02:14;;;;;;;13.20;6.35;;;26.30;43.40;;;;;;5071820;28;20060;-44
2021/09/01 11:04:55;;;;;;;17.92;6.15;;;26.40;43.50;;;;;;5053426;28;20072;-47
2021/09/01 11:07:29;;;;;;;15.60;7.53;;;26.40;43.40;;;;;;5053468;28;20033;-43
2021/09/01 11:10:00;;;;;;;12.98;6.80;;;26.40;43.60;;;;;;5071855;28;20134;-47
2021/09/01 11:12:27;;;;;;;14.43;6.18;;;26.40;43.50;;;;;;5052817;28;20115;-46
2021/09/01 11:14:54;;;;;;;15.18;6.28;;;26.40;43.60;;;;;;5071304;28;20059;-44
2021/09/01 11:17:25;;;;;;;14.80;6.40;;;26.40;43.60;;;;;;5052526;28;20449;-45
2021/09/01 11:19:55;;;;;;;13.82;6.38;;;26.40;43.60;;;;;;5053613;28;20090;-47
2021/09/01 11:22:31;;;;;;;18.63;5.82;;;26.50;43.60;;;;;;5070228;28;20116;-42
2021/09/01 11:25:04;;;;;;;14.13;5.95;;;26.50;43.60;;;;;;5070863;28;20555;-44
2021/09/01 11:27:32;;;;;;;13.52;6.00;;;26.50;43.60;;;;;;5070612;28;20024;-42
2021/09/01 11:30:07;;;;;;;12.90;6.90;;;26.60;43.60;;;;;;5053292;28;20036;-48
2021/09/01 11:32:34;;;;;;;10.50;6.28;;;26.50;43.70;;;;;;5070679;28;20021;-42
2021/09/01 11:35:02;;;;;;;10.68;5.55;;;26.60;43.70;;;;;;5052241;28;20412;-45
2021/09/01 11:37:28;;;;;;;16.58;6.57;;;26.60;43.70;;;;;;5052518;28;20056;-44
2021/09/01 11:39:54;;;;;;;11.48;5.68;;;26.60;43.70;;;;;;5069957;28;20165;-44
2021/09/01 11:42:22;;;;;;;14.82;6.20;;;26.60;43.70;;;;;;5050898;28;20075;-45
2021/09/01 11:44:58;;;;;;;17.02;6.47;;;26.60;43.80;;;;;;5052092;28;20098;-45
2021/09/01 11:47:25;;;;;;;18.38;5.72;;;26.60;43.80;;;;;;5046293;28;20086;-45
2021/09/01 11:49:52;;;;;;;12.88;6.03;;;26.60;43.80;;;;;;5051267;28;20020;-46
2021/09/01 11:52:29;;;;;;;12.75;6.13;;;26.60;43.80;;;;;;5051975;28;20044;-46
2021/09/01 11:54:55;;;;;;;17.77;6.32;;;26.50;43.80;;;;;;5070501;28;20503;-46
2021/09/01 11:57:25;;;;;;;22.90;6.07;;;26.60;43.80;;;;;;5051653;28;20029;-43
2021/09/01 11:59:51;;;;;;;22.65;6.22;;;26.60;43.80;;;;;;5052613;28;20024;-44
2021/09/01 12:02:27;;;;;;;18.13;7.07;;;26.60;43.70;;;;;;5070448;28;20031;-44
2021/09/01 12:04:53;;;;;;;13.70;6.20;;;26.60;44.40;;;;;;5035802;28;20036;-48
2021/09/01 12:07:31;;;;;;;14.50;6.60;;;26.60;43.70;;;;;;5051523;28;20131;-45
2021/09/01 12:10:01;;;;;;;17.75;6.22;;;26.60;43.70;;;;;;5052790;28;20089;-46
2021/09/01 12:12:38;;;;;;;17.10;6.05;;;26.60;43.70;;;;;;5070004;28;20024;-43
2021/09/01 12:15:12;;;;;;;19.42;6.65;;;26.60;43.70;;;;;;5070338;28;20031;-47
2021/09/01 12:17:39;;;;;;;15.93;6.03;;;26.60;43.70;;;;;;5070349;28;20192;-44
2021/09/01 12:20:07;;;;;;;21.83;6.88;;;26.60;43.60;;;;;;5070303;28;20099;-50
2021/09/01 12:22:36;;;;;;;19.70;6.38;;;26.60;43.60;;;;;;5069225;28;20080;-45
2021/09/01 12:25:25;;;;;;;17.00;6.45;;;26.60;43.60;;;;;;5070498;28;20028;-43
2021/09/01 12:28:07;;;;;;;19.48;6.78;;;26.60;43.70;;;;;;5052501;28;20465;-44
2021/09/01 12:30:35;;;;;;;23.40;6.90;;;26.60;43.70;;;;;;5051440;28;20025;-43
2021/09/01 12:33:09;;;;;;;20.25;6.90;;;26.60;43.80;;;;;;5070199;28;20028;-45
2021/09/01 12:35:35;;;;;;;20.48;7.07;;;26.60;43.90;;;;;;5070133;28;20032;-46
2021/09/01 12:38:03;;;;;;;30.42;7.05;;;26.60;43.80;;;;;;5070510;28;20138;-54
2021/09/01 12:40:32;;;;;;;43.28;7.18;;;26.60;43.90;;;;;;5069508;28;20441;-51
2021/09/01 12:43:11;;;;;;;34.35;8.70;;;26.60;44.10;;;;;;5070092;28;20032;-50
2021/09/01 12:45:44;;;;;;;43.35;7.68;;;26.60;44.20;;;;;;5069229;28;20036;-53